Time;durP1;ratioP1;P1;durP2;ratioP2;P2;SDS_P1;SDS_P2;PMS_P1;PMS_P2;Temp;Humidity;BMP_temperature;BMP_pressure;BME280_temperature;BME280_humidity;BME280_pressure;Samples;Min_cycle;Max_cycle;Signal;HPM_P1;HPM_P2
2021/12/31 00:02:14;;;;;;;7.00;3.30;;;;;;;;;;5041311;28;20051;-79
2021/12/31 00:04:39;;;;;;;8.23;3.20;;;;;;;;;;5009371;28;20029;-79
2021/12/31 00:07:05;;;;;;;9.73;3.30;;;;;;;;;;5013968;28;20034;-80
2021/12/31 00:09:30;;;;;;;8.10;3.67;;;;;;;;;;5012650;28;20075;-79
2021/12/31 00:11:55;;;;;;;7.07;2.92;;;;;;;;;;5032166;28;20102;-79
2021/12/31 00:14:22;;;;;;;9.00;2.95;;;;;;;;;;5034603;28;20045;-79
2021/12/31 00:16:48;;;;;;;7.88;2.85;;;;;;;;;;5036854;28;20037;-79
2021/12/31 00:19:16;;;;;;;7.43;2.83;;;;;;;;;;5044578;28;20447;-80
2021/12/31 00:21:45;;;;;;;8.35;2.63;;;;;;;;;;5040196;28;20041;-80
2021/12/31 00:24:11;;;;;;;8.35;2.90;;;;;;;;;;5038119;28;20041;-79
2021/12/31 00:26:36;;;;;;;9.52;3.17;;;;;;;;;;5019232;28;20380;-79
2021/12/31 00:29:02;;;;;;;9.30;3.53;;;;;;;;;;5028516;28;20037;-78
2021/12/31 00:31:27;;;;;;;9.68;3.70;;;;;;;;;;5047450;28;20029;-79
2021/12/31 00:33:53;;;;;;;9.38;3.40;;;;;;;;;;5045233;28;20037;-79
2021/12/31 00:36:18;;;;;;;6.28;3.05;;;;;;;;;;5043495;28;20063;-79
2021/12/31 00:38:44;;;;;;;11.35;3.40;;;;;;;;;;5042637;28;20031;-78
2021/12/31 00:41:09;;;;;;;9.68;3.20;;;;;;;;;;5045736;28;20044;-78
2021/12/31 00:43:35;;;;;;;6.03;3.38;;;;;;;;;;5040423;28;20037;-78
2021/12/31 00:46:02;;;;;;;13.10;3.50;;;;;;;;;;5043377;28;20484;-79
2021/12/31 00:48:27;;;;;;;8.73;3.08;;;;;;;;;;5054853;28;21011;-79
2021/12/31 00:50:53;;;;;;;9.38;3.47;;;;;;;;;;5055773;28;20071;-79
2021/12/31 00:53:18;;;;;;;8.40;3.25;;;;;;;;;;5068641;28;20025;-79
2021/12/31 00:55:43;;;;;;;9.05;3.65;;;;;;;;;;5059461;28;20032;-79
2021/12/31 00:58:09;;;;;;;8.07;3.70;;;;;;;;;;5057064;28;20047;-80
2021/12/31 01:00:35;;;;;;;9.43;3.70;;;;;;;;;;5063060;28;20045;-78
2021/12/31 01:03:00;;;;;;;10.45;3.70;;;;;;;;;;5060201;28;20025;-79
2021/12/31 01:05:26;;;;;;;7.05;3.50;;;;;;;;;;5061122;28;20073;-79
2021/12/31 01:07:51;;;;;;;10.45;4.03;;;;;;;;;;5049722;28;20040;-79
2021/12/31 01:10:18;;;;;;;9.57;4.03;;;;;;;;;;5045109;28;20097;-79
2021/12/31 01:12:44;;;;;;;7.18;3.53;;;;;;;;;;5060194;28;20037;-79
2021/12/31 01:15:18;;;;;;;8.27;4.07;;;;;;;;;;5053723;28;20570;-79
2021/12/31 01:20:22;;;;;;;8.55;3.28;;;;;;;;;;5030283;28;20538;-80
2021/12/31 01:22:47;;;;;;;8.13;3.40;;;;;;;;;;5047580;28;20085;-79
2021/12/31 01:25:13;;;;;;;10.32;3.45;;;;;;;;;;5047119;28;20598;-79
2021/12/31 01:27:39;;;;;;;10.13;3.80;;;;;;;;;;5039480;28;20036;-79
2021/12/31 01:30:06;;;;;;;6.88;3.63;;;;;;;;;;5016689;28;20558;-79
2021/12/31 01:32:32;;;;;;;12.48;3.33;;;;;;;;;;5042937;28;20061;-79
2021/12/31 01:34:58;;;;;;;8.30;3.35;;;;;;;;;;5039659;28;20063;-79
2021/12/31 01:37:23;;;;;;;10.93;3.75;;;;;;;;;;5040561;28;20037;-79
2021/12/31 01:39:49;;;;;;;11.43;4.53;;;;;;;;;;5042503;28;20061;-79
2021/12/31 01:42:17;;;;;;;11.90;4.00;;;;;;;;;;5043510;28;20514;-79
2021/12/31 01:44:52;;;;;;;13.68;3.88;;;;;;;;;;5043883;28;20100;-80
2021/12/31 01:47:21;;;;;;;8.07;3.80;;;;;;;;;;5039421;28;20047;-79
2021/12/31 01:49:56;;;;;;;6.13;3.55;;;;;;;;;;5049365;28;20510;-80
2021/12/31 01:52:22;;;;;;;9.80;3.78;;;;;;;;;;5048664;28;20120;-79
2021/12/31 01:54:47;;;;;;;6.03;3.95;;;;;;;;;;5049614;28;20064;-79
2021/12/31 01:57:13;;;;;;;9.40;3.97;;;;;;;;;;5038314;28;20057;-80
2021/12/31 01:59:41;;;;;;;15.40;5.32;;;;;;;;;;5047086;28;20047;-79
2021/12/31 02:02:07;;;;;;;14.52;4.05;;;;;;;;;;5048362;28;20041;-79
2021/12/31 02:04:34;;;;;;;9.55;4.05;;;;;;;;;;5043876;28;20064;-79
2021/12/31 02:06:59;;;;;;;14.15;4.40;;;;;;;;;;5044174;28;20033;-80
2021/12/31 02:09:25;;;;;;;10.00;4.22;;;;;;;;;;5050489;28;20037;-79
2021/12/31 02:11:54;;;;;;;9.38;4.45;;;;;;;;;;5049852;28;20025;-79
2021/12/31 02:14:21;;;;;;;10.70;4.22;;;;;;;;;;5044331;28;20024;-79
2021/12/31 02:16:46;;;;;;;11.25;4.40;;;;;;;;;;5042243;28;20040;-79
2021/12/31 02:19:14;;;;;;;8.30;4.10;;;;;;;;;;5041478;28;20037;-80
2021/12/31 02:21:44;;;;;;;9.40;4.07;;;;;;;;;;5038675;28;20057;-79
2021/12/31 02:24:09;;;;;;;13.07;4.32;;;;;;;;;;5044403;28;20115;-79
2021/12/31 02:26:34;;;;;;;11.05;4.30;;;;;;;;;;5050414;28;20033;-80
2021/12/31 02:29:00;;;;;;;8.70;3.80;;;;;;;;;;5049793;28;20040;-79
2021/12/31 02:31:25;;;;;;;13.85;5.13;;;;;;;;;;5041550;28;20930;-80
2021/12/31 02:33:50;;;;;;;10.52;4.32;;;;;;;;;;5038856;28;20103;-79
2021/12/31 02:36:17;;;;;;;9.88;4.13;;;;;;;;;;5044478;28;20168;-79
2021/12/31 02:38:43;;;;;;;10.02;4.10;;;;;;;;;;5041099;28;20723;-79
2021/12/31 02:41:09;;;;;;;6.72;3.92;;;;;;;;;;5068259;28;20035;-79
2021/12/31 02:43:35;;;;;;;10.10;3.95;;;;;;;;;;5052563;28;20037;-80
2021/12/31 02:46:00;;;;;;;8.88;3.80;;;;;;;;;;5048223;28;20123;-79
2021/12/31 02:48:27;;;;;;;10.07;4.30;;;;;;;;;;5041901;28;20561;-79
2021/12/31 02:50:56;;;;;;;7.75;4.15;;;;;;;;;;5040907;28;20020;-79
2021/12/31 02:53:31;;;;;;;9.15;3.63;;;;;;;;;;5029339;28;20021;-79
2021/12/31 02:56:05;;;;;;;13.00;4.20;;;;;;;;;;5034380;28;20052;-78
2021/12/31 02:58:32;;;;;;;13.93;4.10;;;;;;;;;;5040407;28;20049;-79
2021/12/31 03:00:58;;;;;;;9.30;4.50;;;;;;;;;;5044941;28;20041;-79
2021/12/31 03:03:24;;;;;;;10.07;3.95;;;;;;;;;;5037733;28;20033;-79
2021/12/31 03:05:53;;;;;;;9.80;3.88;;;;;;;;;;5029792;28;20454;-79
2021/12/31 03:08:21;;;;;;;11.48;4.25;;;;;;;;;;5039093;28;20108;-79
2021/12/31 03:10:47;;;;;;;8.35;3.80;;;;;;;;;;5056883;28;20594;-79
2021/12/31 03:13:15;;;;;;;9.05;4.53;;;;;;;;;;5048445;28;20044;-79
2021/12/31 03:15:41;;;;;;;8.50;3.95;;;;;;;;;;5045397;28;20036;-79
2021/12/31 03:18:08;;;;;;;10.63;3.97;;;;;;;;;;5054259;28;20021;-79
2021/12/31 03:20:36;;;;;;;11.15;4.05;;;;;;;;;;5042313;28;20031;-78
2021/12/31 03:23:03;;;;;;;9.18;3.83;;;;;;;;;;5042270;28;20033;-79
2021/12/31 03:25:29;;;;;;;8.55;3.40;;;;;;;;;;5038798;28;20471;-79
2021/12/31 03:27:54;;;;;;;9.50;3.70;;;;;;;;;;5038956;28;20110;-79
2021/12/31 03:30:20;;;;;;;7.35;3.40;;;;;;;;;;5047705;28;20064;-80
2021/12/31 03:32:45;;;;;;;5.72;3.30;;;;;;;;;;5044180;28;20067;-80
2021/12/31 03:35:10;;;;;;;12.93;3.45;;;;;;;;;;5026413;28;20124;-78
2021/12/31 03:37:36;;;;;;;8.35;3.40;;;;;;;;;;5040656;28;20533;-79
2021/12/31 03:40:01;;;;;;;6.97;3.40;;;;;;;;;;5028523;28;20387;-80
2021/12/31 03:42:27;;;;;;;7.90;3.53;;;;;;;;;;5027112;28;20518;-79
2021/12/31 03:44:52;;;;;;;8.02;3.38;;;;;;;;;;5036843;28;20025;-79
2021/12/31 03:47:17;;;;;;;7.75;3.03;;;;;;;;;;5029400;28;20035;-79
2021/12/31 03:49:43;;;;;;;10.65;3.17;;;;;;;;;;5057270;28;20033;-79
2021/12/31 03:52:08;;;;;;;4.80;2.55;;;;;;;;;;5049262;28;20033;-79
2021/12/31 03:54:33;;;;;;;6.75;2.83;;;;;;;;;;5039595;28;20033;-79
2021/12/31 03:56:59;;;;;;;5.20;2.70;;;;;;;;;;5044179;28;20090;-79
2021/12/31 03:59:24;;;;;;;5.70;2.65;;;;;;;;;;5058676;28;20467;-79
2021/12/31 04:01:50;;;;;;;7.55;2.50;;;;;;;;;;5048276;28;20032;-80
2021/12/31 04:04:15;;;;;;;6.13;2.85;;;;;;;;;;5043853;28;20036;-79
2021/12/31 04:06:40;;;;;;;4.78;2.42;;;;;;;;;;5050910;28;20056;-80
2021/12/31 04:09:06;;;;;;;3.70;2.20;;;;;;;;;;5058549;28;20028;-80
2021/12/31 04:11:32;;;;;;;5.25;2.22;;;;;;;;;;5035913;28;20032;-79
2021/12/31 04:13:57;;;;;;;5.07;2.20;;;;;;;;;;5055222;28;20041;-79
2021/12/31 04:16:23;;;;;;;5.03;2.40;;;;;;;;;;5048729;28;20036;-79
2021/12/31 04:18:48;;;;;;;12.95;2.50;;;;;;;;;;5053052;28;20670;-78
2021/12/31 04:21:18;;;;;;;9.60;2.65;;;;;;;;;;5058902;28;20431;-79
2021/12/31 04:23:53;;;;;;;4.53;2.33;;;;;;;;;;5049426;28;20020;-79
2021/12/31 04:26:19;;;;;;;7.50;2.30;;;;;;;;;;5035091;28;20060;-80
2021/12/31 04:28:45;;;;;;;7.50;2.42;;;;;;;;;;5048450;28;20494;-79
2021/12/31 04:31:11;;;;;;;6.90;2.00;;;;;;;;;;5036677;28;20033;-79
2021/12/31 04:33:36;;;;;;;5.47;2.00;;;;;;;;;;5041428;28;20596;-79
2021/12/31 04:36:02;;;;;;;5.55;2.00;;;;;;;;;;5043087;28;20043;-79
2021/12/31 04:38:27;;;;;;;7.57;2.50;;;;;;;;;;5041996;28;20401;-80
2021/12/31 04:40:52;;;;;;;6.13;2.00;;;;;;;;;;5050048;28;20033;-79
2021/12/31 04:43:18;;;;;;;4.28;2.08;;;;;;;;;;5038195;28;20064;-79
2021/12/31 04:45:43;;;;;;;5.57;2.25;;;;;;;;;;5044537;28;20028;-79
2021/12/31 04:48:08;;;;;;;4.25;1.73;;;;;;;;;;5042307;28;20132;-79
2021/12/31 04:50:34;;;;;;;7.50;2.20;;;;;;;;;;5044187;28;20055;-79
2021/12/31 04:52:59;;;;;;;5.90;2.33;;;;;;;;;;5045529;28;20040;-79
2021/12/31 04:55:25;;;;;;;3.67;1.67;;;;;;;;;;5041747;28;20033;-79
2021/12/31 04:57:51;;;;;;;3.53;1.88;;;;;;;;;;5042684;28;20036;-79
2021/12/31 05:00:17;;;;;;;3.10;2.20;;;;;;;;;;5046714;28;20033;-79
2021/12/31 05:02:43;;;;;;;2.55;2.00;;;;;;;;;;5045748;28;20107;-79
2021/12/31 05:05:08;;;;;;;3.58;2.05;;;;;;;;;;5043942;28;20119;-80
2021/12/31 05:07:34;;;;;;;5.43;2.05;;;;;;;;;;5039591;28;20051;-79
2021/12/31 05:09:59;;;;;;;5.97;1.80;;;;;;;;;;5048246;28;20754;-79
2021/12/31 05:12:30;;;;;;;3.53;2.20;;;;;;;;;;5051490;28;20502;-79
2021/12/31 05:14:56;;;;;;;5.45;2.00;;;;;;;;;;5045811;28;20032;-79
2021/12/31 05:17:21;;;;;;;5.45;1.90;;;;;;;;;;5041663;28;20021;-79
2021/12/31 05:19:47;;;;;;;4.47;2.00;;;;;;;;;;5043905;28;20654;-79
2021/12/31 05:22:14;;;;;;;5.22;2.13;;;;;;;;;;5042054;28;20049;-79
2021/12/31 05:24:40;;;;;;;5.10;1.83;;;;;;;;;;5041930;28;20439;-79
2021/12/31 05:27:06;;;;;;;3.05;1.75;;;;;;;;;;5046640;28;20102;-79
2021/12/31 05:29:33;;;;;;;4.57;2.22;;;;;;;;;;5062990;28;20048;-79
2021/12/31 05:31:58;;;;;;;4.03;1.92;;;;;;;;;;5043678;28;20029;-79
2021/12/31 05:34:23;;;;;;;3.95;2.10;;;;;;;;;;5047835;28;20091;-79
2021/12/31 05:36:49;;;;;;;4.82;2.22;;;;;;;;;;5043339;28;20131;-80
2021/12/31 05:39:14;;;;;;;6.25;2.20;;;;;;;;;;5048105;28;20556;-79
2021/12/31 05:41:40;;;;;;;7.68;2.05;;;;;;;;;;5050794;28;20482;-79
2021/12/31 05:44:06;;;;;;;5.57;1.77;;;;;;;;;;5047090;28;20036;-80
2021/12/31 05:46:32;;;;;;;5.47;1.63;;;;;;;;;;5041239;28;20025;-79
2021/12/31 05:48:58;;;;;;;4.20;2.20;;;;;;;;;;5039218;28;20045;-79
2021/12/31 05:51:26;;;;;;;2.58;1.65;;;;;;;;;;5047349;28;20051;-79
2021/12/31 05:53:52;;;;;;;6.03;2.03;;;;;;;;;;5064409;28;20017;-79
2021/12/31 05:56:18;;;;;;;4.63;2.30;;;;;;;;;;5062502;28;20449;-78
2021/12/31 05:58:43;;;;;;;4.60;1.88;;;;;;;;;;5061998;28;20056;-78
2021/12/31 06:01:09;;;;;;;4.95;2.20;;;;;;;;;;5060303;28;20052;-78
2021/12/31 06:03:34;;;;;;;3.88;2.28;;;;;;;;;;5067030;28;20047;-79
2021/12/31 06:05:59;;;;;;;2.45;1.85;;;;;;;;;;5063026;28;20042;-69
2021/12/31 06:08:25;;;;;;;5.30;2.05;;;;;;;;;;5055154;28;20111;-76
2021/12/31 06:10:50;;;;;;;3.42;2.08;;;;;;;;;;5058776;28;20052;-80
2021/12/31 06:13:15;;;;;;;5.35;2.30;;;;;;;;;;5058216;28;20045;-76
2021/12/31 06:15:42;;;;;;;3.35;2.15;;;;;;;;;;5054273;28;20060;-76
2021/12/31 06:18:09;;;;;;;5.00;2.35;;;;;;;;;;5056333;28;21278;-76
2021/12/31 06:20:36;;;;;;;4.50;2.10;;;;;;;;;;5057797;28;20617;-76
2021/12/31 06:23:01;;;;;;;4.28;2.17;;;;;;;;;;5056663;28;20033;-76
2021/12/31 06:25:27;;;;;;;4.78;2.15;;;;;;;;;;5060026;28;20038;-76
2021/12/31 06:27:53;;;;;;;3.97;2.20;;;;;;;;;;5059472;28;20510;-76
2021/12/31 06:30:19;;;;;;;5.05;1.98;;;;;;;;;;5058636;28;20063;-76
2021/12/31 06:32:44;;;;;;;3.78;2.00;;;;;;;;;;5064372;28;20107;-76
2021/12/31 06:35:09;;;;;;;4.55;2.30;;;;;;;;;;5048052;28;20082;-75
2021/12/31 06:37:36;;;;;;;3.78;2.15;;;;;;;;;;5031725;28;20150;-74
2021/12/31 06:40:04;;;;;;;3.90;1.92;;;;;;;;;;5021044;28;20041;-73
2021/12/31 06:42:30;;;;;;;4.32;2.28;;;;;;;;;;5037242;28;20039;-75
2021/12/31 06:44:55;;;;;;;6.90;2.20;;;;;;;;;;5058499;28;20028;-75
2021/12/31 06:47:20;;;;;;;8.45;2.15;;;;;;;;;;5040981;28;20533;-75
2021/12/31 06:49:46;;;;;;;6.05;2.13;;;;;;;;;;5024534;28;20049;-81
2021/12/31 06:52:11;;;;;;;4.70;2.22;;;;;;;;;;5020928;28;20044;-75
2021/12/31 06:54:36;;;;;;;4.28;2.22;;;;;;;;;;5027299;28;20049;-75
2021/12/31 06:57:03;;;;;;;4.43;1.80;;;;;;;;;;5032222;28;20083;-75
2021/12/31 06:59:29;;;;;;;4.57;1.65;;;;;;;;;;5032869;28;20036;-74
2021/12/31 07:01:55;;;;;;;4.13;1.88;;;;;;;;;;5033670;28;20041;-75
2021/12/31 07:04:20;;;;;;;3.03;1.73;;;;;;;;;;5017449;28;20041;-75
2021/12/31 07:06:46;;;;;;;4.40;2.10;;;;;;;;;;5032915;28;20041;-75
2021/12/31 07:09:11;;;;;;;5.03;2.05;;;;;;;;;;5033797;28;20120;-75
2021/12/31 07:11:36;;;;;;;3.67;1.98;;;;;;;;;;5042397;28;20063;-75
2021/12/31 07:14:02;;;;;;;2.55;1.75;;;;;;;;;;5029755;28;20036;-75
2021/12/31 07:16:27;;;;;;;5.18;2.05;;;;;;;;;;5015623;28;20823;-75
2021/12/31 07:18:53;;;;;;;5.32;2.17;;;;;;;;;;5029632;28;21285;-75
2021/12/31 07:21:18;;;;;;;5.22;2.20;;;;;;;;;;5033895;28;20526;-76
2021/12/31 07:23:43;;;;;;;3.83;2.10;;;;;;;;;;5030485;28;20143;-73
2021/12/31 07:26:09;;;;;;;6.05;1.92;;;;;;;;;;5032232;28;20174;-75
2021/12/31 07:28:34;;;;;;;4.72;1.90;;;;;;;;;;5034219;28;20082;-73
2021/12/31 07:31:00;;;;;;;6.75;2.00;;;;;;;;;;5033064;28;20083;-75
2021/12/31 07:33:25;;;;;;;6.55;2.05;;;;;;;;;;5030086;28;20507;-74
2021/12/31 07:35:52;;;;;;;4.38;2.30;;;;;;;;;;5036132;28;20032;-74
2021/12/31 07:38:24;;;;;;;3.58;2.00;;;;;;;;;;5031419;28;20414;-74
2021/12/31 07:40:51;;;;;;;6.93;4.27;;;;;;;;;;5026580;28;20057;-77
2021/12/31 07:43:18;;;;;;;5.30;2.22;;;;;;;;;;5016781;28;20049;-77
2021/12/31 07:45:43;;;;;;;8.13;1.90;;;;;;;;;;5035283;28;20054;-81
2021/12/31 07:48:09;;;;;;;5.20;2.20;;;;;;;;;;5020398;28;20049;-74
2021/12/31 07:50:36;;;;;;;5.15;2.10;;;;;;;;;;5052641;28;20320;-75
2021/12/31 07:53:03;;;;;;;2.85;2.00;;;;;;;;;;5053054;28;20090;-74
2021/12/31 07:55:28;;;;;;;3.35;1.73;;;;;;;;;;5062580;28;20048;-76
2021/12/31 07:57:53;;;;;;;3.58;1.80;;;;;;;;;;5052148;28;20471;-76
2021/12/31 08:00:19;;;;;;;4.63;2.30;;;;;;;;;;5052492;28;20045;-76
2021/12/31 08:02:44;;;;;;;3.83;2.10;;;;;;;;;;5052221;28;20039;-76
2021/12/31 08:05:10;;;;;;;4.30;2.22;;;;;;;;;;5052900;28;20472;-76
2021/12/31 08:07:35;;;;;;;3.58;2.10;;;;;;;;;;5051243;28;20418;-76
2021/12/31 08:10:02;;;;;;;5.70;2.00;;;;;;;;;;5048050;28;20477;-76
2021/12/31 08:12:28;;;;;;;4.00;1.92;;;;;;;;;;5047890;28;20041;-76
2021/12/31 08:14:53;;;;;;;4.70;1.60;;;;;;;;;;5050825;28;20043;-76
2021/12/31 08:17:18;;;;;;;4.10;2.15;;;;;;;;;;5040614;28;20039;-76
2021/12/31 08:19:44;;;;;;;6.60;2.03;;;;;;;;;;5035030;28;20098;-77
2021/12/31 08:22:09;;;;;;;6.00;2.17;;;;;;;;;;5051201;28;20041;-76
2021/12/31 08:24:35;;;;;;;6.47;2.05;;;;;;;;;;5048858;28;20038;-76
2021/12/31 08:27:00;;;;;;;5.40;1.90;;;;;;;;;;5037153;28;20037;-76
2021/12/31 08:29:26;;;;;;;5.53;2.85;;;;;;;;;;5055365;28;20039;-76
2021/12/31 08:31:51;;;;;;;8.20;3.28;;;;;;;;;;5043601;28;20047;-77
2021/12/31 08:34:17;;;;;;;11.48;3.85;;;;;;;;;;5048444;28;20041;-76
2021/12/31 08:36:42;;;;;;;12.52;4.97;;;;;;;;;;5056663;28;20048;-74
2021/12/31 08:39:08;;;;;;;5.50;2.50;;;;;;;;;;5057994;28;20037;-77
2021/12/31 08:41:34;;;;;;;9.00;3.78;;;;;;;;;;5049867;28;20060;-76
2021/12/31 08:44:00;;;;;;;19.05;5.68;;;;;;;;;;5049163;28;20136;-76
2021/12/31 08:46:25;;;;;;;14.07;5.88;;;;;;;;;;5055860;28;20159;-76
2021/12/31 08:48:52;;;;;;;8.20;3.10;;;;;;;;;;5055093;28;21122;-78
2021/12/31 08:51:18;;;;;;;5.72;2.90;;;;;;;;;;5049156;28;20036;-78
2021/12/31 08:53:43;;;;;;;9.32;3.42;;;;;;;;;;5058790;28;20044;-77
2021/12/31 08:56:08;;;;;;;9.43;3.58;;;;;;;;;;5055636;28;20099;-78
2021/12/31 08:58:35;;;;;;;11.50;4.93;;;;;;;;;;5039302;28;20033;-79
2021/12/31 09:01:00;;;;;;;7.03;2.53;;;;;;;;;;5039305;28;20049;-79
2021/12/31 09:03:25;;;;;;;6.97;3.05;;;;;;;;;;5033245;28;20041;-78
2021/12/31 09:05:51;;;;;;;7.82;3.05;;;;;;;;;;5031939;28;20045;-77
2021/12/31 09:08:16;;;;;;;6.72;2.28;;;;;;;;;;5033789;28;20052;-78
2021/12/31 09:10:42;;;;;;;4.70;2.40;;;;;;;;;;5034551;28;20024;-73
2021/12/31 09:13:07;;;;;;;3.85;2.00;;;;;;;;;;5037534;28;20033;-73
2021/12/31 09:15:32;;;;;;;3.53;1.80;;;;;;;;;;5054199;28;20037;-73
2021/12/31 09:17:58;;;;;;;2.70;1.80;;;;;;;;;;5058138;28;20060;-73
2021/12/31 09:20:23;;;;;;;3.53;1.80;;;;;;;;;;5051351;28;20039;-74
2021/12/31 09:22:48;;;;;;;4.85;2.30;;;;;;;;;;5043957;28;20055;-74
2021/12/31 09:25:15;;;;;;;5.32;1.92;;;;;;;;;;5034017;28;20029;-74
2021/12/31 09:27:40;;;;;;;3.58;1.95;;;;;;;;;;5056315;28;20055;-74
2021/12/31 09:30:07;;;;;;;3.67;1.92;;;;;;;;;;5055383;28;20067;-72
2021/12/31 09:32:32;;;;;;;4.40;1.70;;;;;;;;;;5056831;28;20111;-73
2021/12/31 09:34:58;;;;;;;7.80;2.50;;;;;;;;;;5054003;28;20060;-73
2021/12/31 09:37:24;;;;;;;5.20;2.08;;;;;;;;;;5055810;28;20072;-72
2021/12/31 09:39:49;;;;;;;2.63;1.85;;;;;;;;;;5058277;28;20147;-73
2021/12/31 09:42:14;;;;;;;3.25;1.70;;;;;;;;;;5059408;28;20135;-73
2021/12/31 09:44:40;;;;;;;7.60;2.47;;;;;;;;;;5059630;28;20056;-73
2021/12/31 09:47:10;;;;;;;12.32;4.60;;;;;;;;;;5061510;28;20036;-73
2021/12/31 09:49:38;;;;;;;8.10;3.30;;;;;;;;;;5057182;28;20083;-73
2021/12/31 09:52:04;;;;;;;9.35;3.78;;;;;;;;;;5057531;28;20032;-73
2021/12/31 09:54:29;;;;;;;4.88;2.05;;;;;;;;;;5054391;28;20529;-73
2021/12/31 09:56:55;;;;;;;4.80;2.05;;;;;;;;;;5058124;28;20032;-73
2021/12/31 09:59:23;;;;;;;3.70;2.00;;;;;;;;;;5054025;28;20056;-73
2021/12/31 10:01:51;;;;;;;2.50;1.77;;;;;;;;;;5061488;28;20501;-74
2021/12/31 10:04:17;;;;;;;3.78;1.95;;;;;;;;;;5058813;28;20093;-73
2021/12/31 10:07:08;;;;;;;2.35;1.73;;;;;;;;;;5060666;28;20032;-73
2021/12/31 10:09:35;;;;;;;2.53;1.70;;;;;;;;;;5061471;28;20544;-73
2021/12/31 10:12:01;;;;;;;3.75;1.90;;;;;;;;;;5058414;28;20101;-73
2021/12/31 10:14:35;;;;;;;10.50;1.92;;;;;;;;;;5061397;28;20036;-73
2021/12/31 10:17:00;;;;;;;4.88;1.98;;;;;;;;;;5059447;28;20060;-73
2021/12/31 10:19:26;;;;;;;3.83;2.25;;;;;;;;;;5059109;28;20036;-73
2021/12/31 10:21:54;;;;;;;2.25;1.60;;;;;;;;;;5061914;28;20044;-73
2021/12/31 10:24:23;;;;;;;3.33;2.00;;;;;;;;;;5043386;28;20057;-73
2021/12/31 10:26:50;;;;;;;3.17;1.75;;;;;;;;;;5049983;28;20110;-73
2021/12/31 10:29:16;;;;;;;2.92;1.90;;;;;;;;;;5051098;28;20136;-72
2021/12/31 10:31:46;;;;;;;3.33;1.98;;;;;;;;;;5037676;28;20119;-73
2021/12/31 10:34:44;;;;;;;2.83;2.15;;;;;;;;;;5039312;28;20433;-72
2021/12/31 10:37:15;;;;;;;6.10;2.28;;;;;;;;;;5026605;28;20136;-72
2021/12/31 10:39:41;;;;;;;4.97;2.58;;;;;;;;;;5053779;28;20059;-72
2021/12/31 10:42:08;;;;;;;6.85;2.88;;;;;;;;;;5059357;28;20234;-72
2021/12/31 10:44:48;;;;;;;5.15;2.78;;;;;;;;;;5058801;28;20044;-72
2021/12/31 10:47:37;;;;;;;6.72;2.80;;;;;;;;;;5052252;28;20041;-72
2021/12/31 10:50:02;;;;;;;4.03;2.53;;;;;;;;;;5058894;28;20045;-72
2021/12/31 10:52:53;;;;;;;6.15;2.60;;;;;;;;;;5060222;28;20078;-72
2021/12/31 10:55:22;;;;;;;6.22;3.22;;;;;;;;;;5033771;28;20037;-72
2021/12/31 10:58:00;;;;;;;5.35;2.92;;;;;;;;;;5032627;28;20465;-72
2021/12/31 11:00:29;;;;;;;8.20;3.28;;;;;;;;;;5050275;28;20727;-72
2021/12/31 11:02:56;;;;;;;6.30;3.17;;;;;;;;;;5053994;28;20123;-72
2021/12/31 11:05:22;;;;;;;7.00;3.15;;;;;;;;;;5053277;28;20048;-72
2021/12/31 11:07:50;;;;;;;5.72;3.30;;;;;;;;;;5055871;28;20033;-72
2021/12/31 11:10:16;;;;;;;5.53;3.60;;;;;;;;;;5052102;28;20071;-73
2021/12/31 11:12:47;;;;;;;5.07;3.30;;;;;;;;;;5054247;28;20036;-72
2021/12/31 11:15:14;;;;;;;5.93;3.13;;;;;;;;;;5052648;28;20575;-72
2021/12/31 11:17:39;;;;;;;7.07;3.25;;;;;;;;;;5051690;28;20032;-72
2021/12/31 11:20:07;;;;;;;6.70;3.50;;;;;;;;;;5050139;28;20395;-72
2021/12/31 11:22:33;;;;;;;7.43;3.78;;;;;;;;;;5053239;28;20489;-72
2021/12/31 11:25:17;;;;;;;6.50;3.40;;;;;;;;;;5052607;28;20040;-72
2021/12/31 11:27:44;;;;;;;;;;;;;;;;;;5058045;28;20047;-72
2021/12/31 11:30:25;;;;;;;9.63;3.35;;;;;;;;;;5053306;28;20015;-71
2021/12/31 11:33:10;;;;;;;7.18;3.35;;;;;;;;;;5053820;28;20040;-71
2021/12/31 11:35:37;;;;;;;5.25;2.97;;;;;;;;;;5054123;28;20751;-71
2021/12/31 11:38:11;;;;;;;5.95;3.20;;;;;;;;;;5053100;28;20056;-71
2021/12/31 11:40:40;;;;;;;10.52;3.05;;;;;;;;;;5057066;28;20040;-71
2021/12/31 11:43:25;;;;;;;7.10;3.10;;;;;;;;;;5051865;28;20432;-71
2021/12/31 11:46:29;;;;;;;6.82;3.25;;;;;;;;;;5049609;28;20126;-71
2021/12/31 11:48:55;;;;;;;5.75;3.10;;;;;;;;;;5042801;28;20057;-71
2021/12/31 11:51:33;;;;;;;5.63;2.78;;;;;;;;;;5030802;28;20041;-71
2021/12/31 11:53:58;;;;;;;5.88;3.20;;;;;;;;;;5034850;28;20049;-71
2021/12/31 11:56:33;;;;;;;8.05;3.78;;;;;;;;;;5016704;28;20060;-71
2021/12/31 11:59:19;;;;;;;4.68;3.10;;;;;;;;;;5033378;28;20077;-71
2021/12/31 12:01:47;;;;;;;6.15;3.15;;;;;;;;;;5031619;28;20025;-72
2021/12/31 12:04:22;;;;;;;4.95;3.20;;;;;;;;;;5035529;28;20026;-71
2021/12/31 12:07:00;;;;;;;6.65;3.22;;;;;;;;;;5031221;28;20720;-71
2021/12/31 12:09:49;;;;;;;4.68;2.83;;;;;;;;;;5033023;28;20518;-72
2021/12/31 12:12:26;;;;;;;7.38;3.40;;;;;;;;;;5019972;28;20517;-71
2021/12/31 12:14:54;;;;;;;6.82;3.33;;;;;;;;;;5029204;28;20045;-71
2021/12/31 12:17:28;;;;;;;7.97;3.17;;;;;;;;;;5030173;28;20044;-71
2021/12/31 12:20:08;;;;;;;6.80;3.50;;;;;;;;;;5031986;28;20037;-72
2021/12/31 12:22:39;;;;;;;6.43;3.53;;;;;;;;;;5034266;28;21063;-71
2021/12/31 12:25:25;;;;;;;6.35;3.25;;;;;;;;;;5034079;28;20045;-71
2021/12/31 12:27:52;;;;;;;5.78;3.20;;;;;;;;;;5040087;28;20036;-71
2021/12/31 12:30:19;;;;;;;8.50;3.53;;;;;;;;;;5038930;28;20595;-71
2021/12/31 12:35:25;;;;;;;7.75;3.25;;;;;;;;;;5035196;28;20034;-71
2021/12/31 12:38:02;;;;;;;5.97;2.67;;;;;;;;;;5021450;28;20841;-71
2021/12/31 12:40:36;;;;;;;5.80;3.38;;;;;;;;;;5038607;28;20036;-71
2021/12/31 12:43:01;;;;;;;6.05;3.30;;;;;;;;;;5039704;28;20037;-71
2021/12/31 12:45:27;;;;;;;5.05;3.20;;;;;;;;;;5038220;28;20694;-72
2021/12/31 12:47:52;;;;;;;7.22;3.55;;;;;;;;;;5047321;28;20045;-71
2021/12/31 12:50:17;;;;;;;8.27;3.55;;;;;;;;;;5035174;28;20034;-71
2021/12/31 12:52:55;;;;;;;6.22;3.63;;;;;;;;;;5035780;28;20033;-72
2021/12/31 12:55:21;;;;;;;5.28;3.42;;;;;;;;;;5034236;28;20038;-72
2021/12/31 12:57:58;;;;;;;5.70;3.00;;;;;;;;;;5038914;28;20120;-71
2021/12/31 13:00:33;;;;;;;6.07;2.83;;;;;;;;;;5036167;28;20422;-71
2021/12/31 13:03:10;;;;;;;7.63;3.22;;;;;;;;;;5036772;28;20048;-71
2021/12/31 13:05:37;;;;;;;5.05;2.92;;;;;;;;;;5038750;28;20585;-71
2021/12/31 13:08:04;;;;;;;5.40;3.00;;;;;;;;;;5037814;28;20029;-71
2021/12/31 13:10:31;;;;;;;4.75;2.70;;;;;;;;;;5041038;28;20020;-71
2021/12/31 13:12:57;;;;;;;7.35;3.00;;;;;;;;;;5015964;28;20064;-71
2021/12/31 13:15:23;;;;;;;6.07;3.45;;;;;;;;;;5038482;28;20049;-71
2021/12/31 13:18:05;;;;;;;8.73;3.17;;;;;;;;;;5037032;28;20112;-71
2021/12/31 13:20:33;;;;;;;8.63;3.40;;;;;;;;;;5036544;28;20060;-71
2021/12/31 13:23:05;;;;;;;6.90;3.15;;;;;;;;;;5036812;28;20040;-71
2021/12/31 13:25:46;;;;;;;7.18;3.50;;;;;;;;;;5036001;28;20387;-72
2021/12/31 13:28:12;;;;;;;7.63;3.55;;;;;;;;;;5040152;28;20037;-71
2021/12/31 13:30:50;;;;;;;6.10;3.00;;;;;;;;;;5033116;28;20047;-71
2021/12/31 13:33:24;;;;;;;8.90;3.60;;;;;;;;;;5034238;28;20033;-71
2021/12/31 13:36:07;;;;;;;;;;;;;;;;;;5019461;28;20044;-71
2021/12/31 13:38:55;;;;;;;9.30;3.42;;;;;;;;;;5030758;28;19929;-71
2021/12/31 13:41:21;;;;;;;7.63;3.25;;;;;;;;;;5032840;28;20099;-71
2021/12/31 13:44:02;;;;;;;11.23;3.80;;;;;;;;;;5031775;28;20079;-71
2021/12/31 13:46:33;;;;;;;8.32;3.40;;;;;;;;;;5031537;28;20029;-71
2021/12/31 13:49:10;;;;;;;10.07;3.30;;;;;;;;;;5035878;28;20053;-71
2021/12/31 13:51:41;;;;;;;6.75;3.47;;;;;;;;;;5035031;28;20029;-71
2021/12/31 13:54:10;;;;;;;7.07;3.35;;;;;;;;;;5013227;28;20453;-71
2021/12/31 13:56:37;;;;;;;8.10;3.65;;;;;;;;;;5031556;28;20037;-71
2021/12/31 13:59:21;;;;;;;10.52;3.60;;;;;;;;;;5035349;28;20052;-71
2021/12/31 14:02:14;;;;;;;8.98;3.17;;;;;;;;;;5033547;28;20410;-70
2021/12/31 14:04:58;;;;;;;7.43;3.42;;;;;;;;;;5035872;28;20029;-71
2021/12/31 14:07:54;;;;;;;8.20;3.85;;;;;;;;;;5017066;28;20448;-71
2021/12/31 14:10:21;;;;;;;7.07;3.53;;;;;;;;;;5035925;28;20045;-71
2021/12/31 14:13:09;;;;;;;8.80;4.00;;;;;;;;;;5034699;28;20046;-71
2021/12/31 14:15:40;;;;;;;9.38;3.75;;;;;;;;;;5029578;28;20034;-71
2021/12/31 14:18:11;;;;;;;7.07;3.45;;;;;;;;;;5029555;28;20033;-70
2021/12/31 14:20:42;;;;;;;7.28;3.83;;;;;;;;;;5033288;28;20429;-71
2021/12/31 14:23:08;;;;;;;9.23;4.43;;;;;;;;;;5033914;28;20990;-71
2021/12/31 14:25:36;;;;;;;10.98;5.53;;;;;;;;;;5035203;28;20079;-71
2021/12/31 14:28:02;;;;;;;7.43;4.05;;;;;;;;;;5035327;28;20095;-71
2021/12/31 14:30:29;;;;;;;23.17;14.48;;;;;;;;;;5035257;28;20037;-71
2021/12/31 14:32:54;;;;;;;9.90;3.88;;;;;;;;;;5036567;28;20037;-71
2021/12/31 14:35:28;;;;;;;8.25;4.03;;;;;;;;;;5033094;28;20044;-71
2021/12/31 14:37:56;;;;;;;7.13;4.20;;;;;;;;;;5036464;28;20111;-71
2021/12/31 14:40:22;;;;;;;13.40;4.20;;;;;;;;;;5036592;28;20020;-71
2021/12/31 14:42:49;;;;;;;9.98;4.97;;;;;;;;;;5036505;28;20030;-71
2021/12/31 14:45:16;;;;;;;7.82;4.00;;;;;;;;;;5037676;28;20118;-71
2021/12/31 14:47:43;;;;;;;10.05;4.88;;;;;;;;;;5034426;28;20040;-70
2021/12/31 14:50:10;;;;;;;8.30;4.32;;;;;;;;;;5054041;28;20055;-71
2021/12/31 14:52:37;;;;;;;7.20;4.70;;;;;;;;;;5051428;28;20070;-71